sensor_id;sensor_type;location;lat;lon;timestamp;temperature;humidity
34153;DHT22;20426;48.372;10.888;2023-06-22T00:00:26;21.00;99.90
34153;DHT22;20426;48.372;10.888;2023-06-22T00:00:58;21.00;99.90
34153;DHT22;20426;48.372;10.888;2023-06-22T00:01:28;21.00;99.90
34153;DHT22;20426;48.372;10.888;2023-06-22T00:02:00;21.00;99.90
34153;DHT22;20426;48.372;10.888;2023-06-22T00:02:30;21.00;99.90
34153;DHT22;20426;48.372;10.888;2023-06-22T00:03:01;21.00;99.90
34153;DHT22;20426;48.372;10.888;2023-06-22T00:03:32;21.00;99.90
34153;DHT22;20426;48.372;10.888;2023-06-22T00:04:03;21.00;99.90
34153;DHT22;20426;48.372;10.888;2023-06-22T00:04:33;21.00;99.90
34153;DHT22;20426;48.372;10.888;2023-06-22T00:05:04;21.00;99.90
34153;DHT22;20426;48.372;10.888;2023-06-22T00:05:35;21.00;99.90
34153;DHT22;20426;48.372;10.888;2023-06-22T00:06:06;21.00;99.90
34153;DHT22;20426;48.372;10.888;2023-06-22T00:06:36;21.00;99.90
34153;DHT22;20426;48.372;10.888;2023-06-22T00:07:07;21.00;99.90
34153;DHT22;20426;48.372;10.888;2023-06-22T00:07:39;21.00;99.90
34153;DHT22;20426;48.372;10.888;2023-06-22T00:08:09;21.00;99.90
34153;DHT22;20426;48.372;10.888;2023-06-22T00:08:40;21.00;99.90
34153;DHT22;20426;48.372;10.888;2023-06-22T00:09:11;21.00;99.90
34153;DHT22;20426;48.372;10.888;2023-06-22T00:09:42;20.90;99.90
34153;DHT22;20426;48.372;10.888;2023-06-22T00:10:13;20.90;99.90
34153;DHT22;20426;48.372;10.888;2023-06-22T00:10:44;20.90;99.90
34153;DHT22;20426;48.372;10.888;2023-06-22T00:11:15;20.90;99.90
34153;DHT22;20426;48.372;10.888;2023-06-22T00:11:45;20.90;99.90
34153;DHT22;20426;48.372;10.888;2023-06-22T00:12:16;20.90;99.90
34153;DHT22;20426;48.372;10.888;2023-06-22T00:12:47;20.90;99.90
34153;DHT22;20426;48.372;10.888;2023-06-22T00:13:17;20.90;99.90
34153;DHT22;20426;48.372;10.888;2023-06-22T00:13:48;20.90;99.90
34153;DHT22;20426;48.372;10.888;2023-06-22T00:14:19;20.90;99.90
34153;DHT22;20426;48.372;10.888;2023-06-22T00:14:50;20.90;99.90
34153;DHT22;20426;48.372;10.888;2023-06-22T00:15:21;20.90;99.90
34153;DHT22;20426;48.372;10.888;2023-06-22T00:15:51;20.90;99.90
34153;DHT22;20426;48.372;10.888;2023-06-22T00:16:22;20.90;99.90
34153;DHT22;20426;48.372;10.888;2023-06-22T00:16:53;20.90;99.90
34153;DHT22;20426;48.372;10.888;2023-06-22T00:17:27;20.90;99.90
34153;DHT22;20426;48.372;10.888;2023-06-22T00:17:58;20.90;99.90
34153;DHT22;20426;48.372;10.888;2023-06-22T00:18:29;20.90;99.90
34153;DHT22;20426;48.372;10.888;2023-06-22T00:19:01;20.90;99.90
34153;DHT22;20426;48.372;10.888;2023-06-22T00:19:33;20.90;99.90
34153;DHT22;20426;48.372;10.888;2023-06-22T00:20:07;20.90;99.90
34153;DHT22;20426;48.372;10.888;2023-06-22T00:20:39;20.90;99.90
34153;DHT22;20426;48.372;10.888;2023-06-22T00:21:09;20.80;99.90
34153;DHT22;20426;48.372;10.888;2023-06-22T00:21:40;20.90;99.90
34153;DHT22;20426;48.372;10.888;2023-06-22T00:22:11;20.80;99.90
34153;DHT22;20426;48.372;10.888;2023-06-22T00:22:42;20.80;99.90
34153;DHT22;20426;48.372;10.888;2023-06-22T00:23:13;20.80;99.90
34153;DHT22;20426;48.372;10.888;2023-06-22T00:23:46;20.80;99.90
34153;DHT22;20426;48.372;10.888;2023-06-22T00:24:18;20.80;99.90
34153;DHT22;20426;48.372;10.888;2023-06-22T00:24:48;20.90;99.90
34153;DHT22;20426;48.372;10.888;2023-06-22T00:25:19;20.90;99.90
34153;DHT22;20426;48.372;10.888;2023-06-22T00:25:50;20.90;99.90
34153;DHT22;20426;48.372;10.888;2023-06-22T00:26:21;20.90;99.90
34153;DHT22;20426;48.372;10.888;2023-06-22T00:26:52;20.90;99.90
34153;DHT22;20426;48.372;10.888;2023-06-22T00:27:23;20.80;99.90
34153;DHT22;20426;48.372;10.888;2023-06-22T00:27:53;20.90;99.90
34153;DHT22;20426;48.372;10.888;2023-06-22T00:28:24;20.90;99.90
34153;DHT22;20426;48.372;10.888;2023-06-22T00:28:55;20.90;99.90
34153;DHT22;20426;48.372;10.888;2023-06-22T00:29:25;20.90;99.90
34153;DHT22;20426;48.372;10.888;2023-06-22T00:29:56;20.90;99.90
34153;DHT22;20426;48.372;10.888;2023-06-22T00:30:26;20.90;99.90
34153;DHT22;20426;48.372;10.888;2023-06-22T00:30:57;20.90;99.90
34153;DHT22;20426;48.372;10.888;2023-06-22T00:31:28;20.90;99.90
34153;DHT22;20426;48.372;10.888;2023-06-22T00:31:58;20.90;99.90
34153;DHT22;20426;48.372;10.888;2023-06-22T00:32:29;20.90;99.90
34153;DHT22;20426;48.372;10.888;2023-06-22T00:33:00;20.90;99.90
34153;DHT22;20426;48.372;10.888;2023-06-22T00:33:31;20.90;99.90
34153;DHT22;20426;48.372;10.888;2023-06-22T00:34:02;20.90;99.90
34153;DHT22;20426;48.372;10.888;2023-06-22T00:34:32;20.90;99.90
34153;DHT22;20426;48.372;10.888;2023-06-22T00:35:03;20.90;99.90
34153;DHT22;20426;48.372;10.888;2023-06-22T00:35:34;20.90;99.90
34153;DHT22;20426;48.372;10.888;2023-06-22T00:36:05;20.90;99.90
34153;DHT22;20426;48.372;10.888;2023-06-22T00:36:38;20.90;99.90
34153;DHT22;20426;48.372;10.888;2023-06-22T00:37:11;20.90;99.90
34153;DHT22;20426;48.372;10.888;2023-06-22T00:37:41;20.90;99.90
34153;DHT22;20426;48.372;10.888;2023-06-22T00:38:12;20.90;99.90
34153;DHT22;20426;48.372;10.888;2023-06-22T00:38:43;20.90;99.90
34153;DHT22;20426;48.372;10.888;2023-06-22T00:39:14;20.90;99.90
34153;DHT22;20426;48.372;10.888;2023-06-22T00:39:44;20.90;99.90
34153;DHT22;20426;48.372;10.888;2023-06-22T00:40:15;20.90;99.90
34153;DHT22;20426;48.372;10.888;2023-06-22T00:40:52;20.90;99.90
34153;DHT22;20426;48.372;10.888;2023-06-22T00:41:22;20.90;99.90
34153;DHT22;20426;48.372;10.888;2023-06-22T00:41:53;20.90;99.90
34153;DHT22;20426;48.372;10.888;2023-06-22T00:42:24;20.90;99.90
34153;DHT22;20426;48.372;10.888;2023-06-22T00:42:55;20.80;99.90
34153;DHT22;20426;48.372;10.888;2023-06-22T00:43:26;20.80;99.90
34153;DHT22;20426;48.372;10.888;2023-06-22T00:43:56;20.80;99.90
34153;DHT22;20426;48.372;10.888;2023-06-22T00:44:27;20.70;99.90
34153;DHT22;20426;48.372;10.888;2023-06-22T00:44:58;20.70;99.90
34153;DHT22;20426;48.372;10.888;2023-06-22T00:45:28;20.70;99.90
34153;DHT22;20426;48.372;10.888;2023-06-22T00:45:59;20.70;99.90
34153;DHT22;20426;48.372;10.888;2023-06-22T00:46:30;20.60;99.90
34153;DHT22;20426;48.372;10.888;2023-06-22T00:47:01;20.60;99.90
34153;DHT22;20426;48.372;10.888;2023-06-22T00:47:32;20.70;99.90
34153;DHT22;20426;48.372;10.888;2023-06-22T00:48:05;20.70;99.90
34153;DHT22;20426;48.372;10.888;2023-06-22T00:48:36;20.70;99.90
34153;DHT22;20426;48.372;10.888;2023-06-22T00:49:07;20.70;99.90
34153;DHT22;20426;48.372;10.888;2023-06-22T00:49:38;20.70;99.90
34153;DHT22;20426;48.372;10.888;2023-06-22T00:50:11;20.70;99.90
34153;DHT22;20426;48.372;10.888;2023-06-22T00:50:48;20.70;99.90
34153;DHT22;20426;48.372;10.888;2023-06-22T00:51:21;20.70;99.90
34153;DHT22;20426;48.372;10.888;2023-06-22T00:51:56;20.70;99.90
34153;DHT22;20426;48.372;10.888;2023-06-22T00:52:27;20.70;99.90
34153;DHT22;20426;48.372;10.888;2023-06-22T00:53:03;20.70;99.90
34153;DHT22;20426;48.372;10.888;2023-06-22T00:53:38;20.70;99.90
34153;DHT22;20426;48.372;10.888;2023-06-22T00:54:09;20.70;99.90
34153;DHT22;20426;48.372;10.888;2023-06-22T00:54:41;20.70;99.90
34153;DHT22;20426;48.372;10.888;2023-06-22T00:55:15;20.70;99.90
34153;DHT22;20426;48.372;10.888;2023-06-22T00:55:48;20.70;99.90
34153;DHT22;20426;48.372;10.888;2023-06-22T00:56:23;20.70;99.90
34153;DHT22;20426;48.372;10.888;2023-06-22T00:56:54;20.60;99.90
34153;DHT22;20426;48.372;10.888;2023-06-22T00:57:26;20.60;99.90
34153;DHT22;20426;48.372;10.888;2023-06-22T00:57:58;20.60;99.90
34153;DHT22;20426;48.372;10.888;2023-06-22T00:58:29;20.60;99.90
34153;DHT22;20426;48.372;10.888;2023-06-22T00:59:00;20.60;99.90
34153;DHT22;20426;48.372;10.888;2023-06-22T00:59:34;20.60;99.90
34153;DHT22;20426;48.372;10.888;2023-06-22T01:00:05;20.60;99.90
34153;DHT22;20426;48.372;10.888;2023-06-22T01:00:39;20.60;99.90
34153;DHT22;20426;48.372;10.888;2023-06-22T01:01:10;20.60;99.90
34153;DHT22;20426;48.372;10.888;2023-06-22T01:01:40;20.60;99.90
34153;DHT22;20426;48.372;10.888;2023-06-22T01:02:11;20.60;99.90
34153;DHT22;20426;48.372;10.888;2023-06-22T01:02:43;20.60;99.90
34153;DHT22;20426;48.372;10.888;2023-06-22T01:03:16;20.60;99.90
34153;DHT22;20426;48.372;10.888;2023-06-22T01:03:47;20.60;99.90
34153;DHT22;20426;48.372;10.888;2023-06-22T01:04:18;20.60;99.90
34153;DHT22;20426;48.372;10.888;2023-06-22T01:04:49;20.60;99.90
34153;DHT22;20426;48.372;10.888;2023-06-22T01:05:21;20.60;99.90
34153;DHT22;20426;48.372;10.888;2023-06-22T01:05:55;20.60;99.90
34153;DHT22;20426;48.372;10.888;2023-06-22T01:06:45;20.60;99.90
34153;DHT22;20426;48.372;10.888;2023-06-22T01:07:39;20.60;99.90
34153;DHT22;20426;48.372;10.888;2023-06-22T01:08:23;20.60;99.90
34153;DHT22;20426;48.372;10.888;2023-06-22T01:09:06;20.50;99.90
34153;DHT22;20426;48.372;10.888;2023-06-22T01:09:49;20.50;99.90
34153;DHT22;20426;48.372;10.888;2023-06-22T01:10:55;20.50;99.90
34153;DHT22;20426;48.372;10.888;2023-06-22T01:11:35;20.50;99.90
34153;DHT22;20426;48.372;10.888;2023-06-22T01:12:08;20.50;99.90
34153;DHT22;20426;48.372;10.888;2023-06-22T01:12:46;20.50;99.90
34153;DHT22;20426;48.372;10.888;2023-06-22T01:14:10;20.50;99.90
34153;DHT22;20426;48.372;10.888;2023-06-22T01:14:47;20.50;99.90
34153;DHT22;20426;48.372;10.888;2023-06-22T01:15:45;20.50;99.90
34153;DHT22;20426;48.372;10.888;2023-06-22T01:16:27;20.50;99.90
34153;DHT22;20426;48.372;10.888;2023-06-22T01:17:00;20.50;99.90
34153;DHT22;20426;48.372;10.888;2023-06-22T01:17:32;20.50;99.90
34153;DHT22;20426;48.372;10.888;2023-06-22T01:18:43;20.40;99.90
34153;DHT22;20426;48.372;10.888;2023-06-22T01:20:08;20.40;99.90
34153;DHT22;20426;48.372;10.888;2023-06-22T01:20:40;20.30;99.90
34153;DHT22;20426;48.372;10.888;2023-06-22T01:21:15;20.30;99.90
34153;DHT22;20426;48.372;10.888;2023-06-22T01:21:49;20.30;99.90
34153;DHT22;20426;48.372;10.888;2023-06-22T01:22:24;20.30;99.90
34153;DHT22;20426;48.372;10.888;2023-06-22T01:24:33;20.40;99.90
34153;DHT22;20426;48.372;10.888;2023-06-22T01:25:28;20.30;99.90
34153;DHT22;20426;48.372;10.888;2023-06-22T01:26:06;20.30;99.90
34153;DHT22;20426;48.372;10.888;2023-06-22T01:26:48;20.30;99.90
34153;DHT22;20426;48.372;10.888;2023-06-22T01:27:40;20.40;99.90
34153;DHT22;20426;48.372;10.888;2023-06-22T01:29:06;20.40;99.90
34153;DHT22;20426;48.372;10.888;2023-06-22T01:29:38;20.40;99.90
34153;DHT22;20426;48.372;10.888;2023-06-22T01:30:10;20.40;99.90
34153;DHT22;20426;48.372;10.888;2023-06-22T01:30:45;20.30;99.90
34153;DHT22;20426;48.372;10.888;2023-06-22T01:31:20;20.30;99.90
34153;DHT22;20426;48.372;10.888;2023-06-22T01:31:52;20.30;99.90
34153;DHT22;20426;48.372;10.888;2023-06-22T01:32:24;20.30;99.90
34153;DHT22;20426;48.372;10.888;2023-06-22T01:32:58;20.30;99.90
34153;DHT22;20426;48.372;10.888;2023-06-22T01:33:35;20.30;99.90
34153;DHT22;20426;48.372;10.888;2023-06-22T01:34:08;20.30;99.90
34153;DHT22;20426;48.372;10.888;2023-06-22T01:34:40;20.30;99.90
34153;DHT22;20426;48.372;10.888;2023-06-22T01:35:12;20.20;99.90
34153;DHT22;20426;48.372;10.888;2023-06-22T01:35:44;20.20;99.90
34153;DHT22;20426;48.372;10.888;2023-06-22T01:36:15;20.20;99.90
34153;DHT22;20426;48.372;10.888;2023-06-22T01:36:47;20.30;99.90
34153;DHT22;20426;48.372;10.888;2023-06-22T01:37:18;20.30;99.90
34153;DHT22;20426;48.372;10.888;2023-06-22T01:37:49;20.20;99.90
34153;DHT22;20426;48.372;10.888;2023-06-22T01:38:20;20.20;99.90
34153;DHT22;20426;48.372;10.888;2023-06-22T01:38:53;20.20;99.90
34153;DHT22;20426;48.372;10.888;2023-06-22T01:39:24;20.20;99.90
34153;DHT22;20426;48.372;10.888;2023-06-22T01:39:56;20.20;99.90
34153;DHT22;20426;48.372;10.888;2023-06-22T01:40:28;20.30;99.90
34153;DHT22;20426;48.372;10.888;2023-06-22T01:41:01;20.20;99.90
34153;DHT22;20426;48.372;10.888;2023-06-22T01:41:36;20.30;99.90
34153;DHT22;20426;48.372;10.888;2023-06-22T01:42:07;20.20;99.90
34153;DHT22;20426;48.372;10.888;2023-06-22T01:42:38;20.20;99.90
34153;DHT22;20426;48.372;10.888;2023-06-22T01:43:09;20.20;99.90
34153;DHT22;20426;48.372;10.888;2023-06-22T01:43:40;20.20;99.90
34153;DHT22;20426;48.372;10.888;2023-06-22T01:44:12;20.20;99.90
34153;DHT22;20426;48.372;10.888;2023-06-22T01:44:43;20.20;99.90
34153;DHT22;20426;48.372;10.888;2023-06-22T01:45:15;20.20;99.90
34153;DHT22;20426;48.372;10.888;2023-06-22T01:45:46;20.20;99.90
34153;DHT22;20426;48.372;10.888;2023-06-22T01:46:18;20.20;99.90
34153;DHT22;20426;48.372;10.888;2023-06-22T01:46:50;20.20;99.90
34153;DHT22;20426;48.372;10.888;2023-06-22T01:47:22;20.20;99.90
34153;DHT22;20426;48.372;10.888;2023-06-22T01:47:54;20.20;99.90
34153;DHT22;20426;48.372;10.888;2023-06-22T01:48:25;20.20;99.90
34153;DHT22;20426;48.372;10.888;2023-06-22T01:48:56;20.20;99.90
34153;DHT22;20426;48.372;10.888;2023-06-22T01:49:28;20.20;99.90
34153;DHT22;20426;48.372;10.888;2023-06-22T01:49:58;20.20;99.90
34153;DHT22;20426;48.372;10.888;2023-06-22T01:50:29;20.20;99.90
34153;DHT22;20426;48.372;10.888;2023-06-22T01:51:00;20.20;99.90
34153;DHT22;20426;48.372;10.888;2023-06-22T01:51:32;20.20;99.90
34153;DHT22;20426;48.372;10.888;2023-06-22T01:52:03;20.20;99.90
34153;DHT22;20426;48.372;10.888;2023-06-22T01:52:34;20.20;99.90
34153;DHT22;20426;48.372;10.888;2023-06-22T01:53:05;20.20;99.90
34153;DHT22;20426;48.372;10.888;2023-06-22T01:53:37;20.20;99.90
34153;DHT22;20426;48.372;10.888;2023-06-22T01:54:07;20.20;99.90
34153;DHT22;20426;48.372;10.888;2023-06-22T01:54:40;20.10;99.90
34153;DHT22;20426;48.372;10.888;2023-06-22T01:55:10;20.20;99.90
34153;DHT22;20426;48.372;10.888;2023-06-22T01:55:41;20.20;99.90
34153;DHT22;20426;48.372;10.888;2023-06-22T01:56:12;20.20;99.90
34153;DHT22;20426;48.372;10.888;2023-06-22T01:56:43;20.20;99.90
34153;DHT22;20426;48.372;10.888;2023-06-22T01:57:14;20.20;99.90
34153;DHT22;20426;48.372;10.888;2023-06-22T01:57:44;20.20;99.90
34153;DHT22;20426;48.372;10.888;2023-06-22T01:58:15;20.20;99.90
34153;DHT22;20426;48.372;10.888;2023-06-22T01:59:36;20.20;99.90
34153;DHT22;20426;48.372;10.888;2023-06-22T02:00:12;20.20;99.90
34153;DHT22;20426;48.372;10.888;2023-06-22T02:00:55;20.20;99.90
34153;DHT22;20426;48.372;10.888;2023-06-22T02:01:33;20.20;99.90
34153;DHT22;20426;48.372;10.888;2023-06-22T02:02:11;20.20;99.90
34153;DHT22;20426;48.372;10.888;2023-06-22T02:03:48;20.20;99.90
34153;DHT22;20426;48.372;10.888;2023-06-22T02:04:26;20.20;99.90
34153;DHT22;20426;48.372;10.888;2023-06-22T02:05:01;20.20;99.90
34153;DHT22;20426;48.372;10.888;2023-06-22T02:05:37;20.20;99.90
34153;DHT22;20426;48.372;10.888;2023-06-22T02:06:18;20.20;99.90
34153;DHT22;20426;48.372;10.888;2023-06-22T02:06:56;20.20;99.90
34153;DHT22;20426;48.372;10.888;2023-06-22T02:07:31;20.20;99.90
34153;DHT22;20426;48.372;10.888;2023-06-22T02:08:12;20.20;99.90
34153;DHT22;20426;48.372;10.888;2023-06-22T02:08:49;20.20;99.90
34153;DHT22;20426;48.372;10.888;2023-06-22T02:09:22;20.20;99.90
34153;DHT22;20426;48.372;10.888;2023-06-22T02:09:55;20.10;99.90
34153;DHT22;20426;48.372;10.888;2023-06-22T02:10:28;20.10;99.90
34153;DHT22;20426;48.372;10.888;2023-06-22T02:11:00;20.10;99.90
34153;DHT22;20426;48.372;10.888;2023-06-22T02:11:33;20.20;99.90
34153;DHT22;20426;48.372;10.888;2023-06-22T02:12:06;20.10;99.90
34153;DHT22;20426;48.372;10.888;2023-06-22T02:12:38;20.10;99.90
34153;DHT22;20426;48.372;10.888;2023-06-22T02:13:10;20.10;99.90
34153;DHT22;20426;48.372;10.888;2023-06-22T02:13:41;20.10;99.90
34153;DHT22;20426;48.372;10.888;2023-06-22T02:14:13;20.10;99.90
34153;DHT22;20426;48.372;10.888;2023-06-22T02:14:46;20.10;99.90
34153;DHT22;20426;48.372;10.888;2023-06-22T02:15:17;20.10;99.90
34153;DHT22;20426;48.372;10.888;2023-06-22T02:15:48;20.10;99.90
34153;DHT22;20426;48.372;10.888;2023-06-22T02:16:19;20.00;99.90
34153;DHT22;20426;48.372;10.888;2023-06-22T02:16:51;20.00;99.90
34153;DHT22;20426;48.372;10.888;2023-06-22T02:17:25;20.10;99.90
34153;DHT22;20426;48.372;10.888;2023-06-22T02:17:56;20.00;99.90
34153;DHT22;20426;48.372;10.888;2023-06-22T02:18:27;20.00;99.90
34153;DHT22;20426;48.372;10.888;2023-06-22T02:19:01;20.00;99.90
34153;DHT22;20426;48.372;10.888;2023-06-22T02:19:36;20.00;99.90
34153;DHT22;20426;48.372;10.888;2023-06-22T02:20:14;20.00;99.90
34153;DHT22;20426;48.372;10.888;2023-06-22T02:20:45;20.00;99.90
34153;DHT22;20426;48.372;10.888;2023-06-22T02:21:17;20.00;99.90
34153;DHT22;20426;48.372;10.888;2023-06-22T02:21:47;20.00;99.90
34153;DHT22;20426;48.372;10.888;2023-06-22T02:22:18;20.00;99.90
34153;DHT22;20426;48.372;10.888;2023-06-22T02:22:49;20.00;99.90
34153;DHT22;20426;48.372;10.888;2023-06-22T02:23:19;20.00;99.90
34153;DHT22;20426;48.372;10.888;2023-06-22T02:23:50;20.00;99.90
34153;DHT22;20426;48.372;10.888;2023-06-22T02:24:21;20.00;99.90
34153;DHT22;20426;48.372;10.888;2023-06-22T02:24:53;20.00;99.90
34153;DHT22;20426;48.372;10.888;2023-06-22T02:25:24;20.00;99.90
34153;DHT22;20426;48.372;10.888;2023-06-22T02:25:55;20.00;99.90
34153;DHT22;20426;48.372;10.888;2023-06-22T02:26:26;20.00;99.90
34153;DHT22;20426;48.372;10.888;2023-06-22T02:26:58;20.00;99.90
34153;DHT22;20426;48.372;10.888;2023-06-22T02:27:28;20.00;99.90
34153;DHT22;20426;48.372;10.888;2023-06-22T02:27:59;20.00;99.90
34153;DHT22;20426;48.372;10.888;2023-06-22T02:28:30;20.00;99.90
34153;DHT22;20426;48.372;10.888;2023-06-22T02:29:01;20.00;99.90
34153;DHT22;20426;48.372;10.888;2023-06-22T02:29:31;20.00;99.90
34153;DHT22;20426;48.372;10.888;2023-06-22T02:30:02;20.00;99.90
34153;DHT22;20426;48.372;10.888;2023-06-22T02:30:33;20.00;99.90
34153;DHT22;20426;48.372;10.888;2023-06-22T02:31:04;20.00;99.90
34153;DHT22;20426;48.372;10.888;2023-06-22T02:31:35;20.00;99.90
34153;DHT22;20426;48.372;10.888;2023-06-22T02:32:06;20.00;99.90
34153;DHT22;20426;48.372;10.888;2023-06-22T02:32:37;20.00;99.90
34153;DHT22;20426;48.372;10.888;2023-06-22T02:33:07;20.00;99.90
34153;DHT22;20426;48.372;10.888;2023-06-22T02:33:38;19.90;99.90
34153;DHT22;20426;48.372;10.888;2023-06-22T02:34:09;19.90;99.90
34153;DHT22;20426;48.372;10.888;2023-06-22T02:34:39;19.90;99.90
34153;DHT22;20426;48.372;10.888;2023-06-22T02:35:10;19.90;99.90
34153;DHT22;20426;48.372;10.888;2023-06-22T02:35:41;20.00;99.90
34153;DHT22;20426;48.372;10.888;2023-06-22T02:36:16;19.90;99.90
34153;DHT22;20426;48.372;10.888;2023-06-22T02:36:47;19.90;99.90
34153;DHT22;20426;48.372;10.888;2023-06-22T02:37:21;19.90;99.90
34153;DHT22;20426;48.372;10.888;2023-06-22T02:37:55;20.00;99.90
34153;DHT22;20426;48.372;10.888;2023-06-22T02:38:26;20.00;99.90
34153;DHT22;20426;48.372;10.888;2023-06-22T02:38:57;20.00;99.90
34153;DHT22;20426;48.372;10.888;2023-06-22T02:39:29;20.00;99.90
34153;DHT22;20426;48.372;10.888;2023-06-22T02:40:00;19.90;99.90
34153;DHT22;20426;48.372;10.888;2023-06-22T02:40:31;19.90;99.90
34153;DHT22;20426;48.372;10.888;2023-06-22T02:41:02;19.90;99.90
34153;DHT22;20426;48.372;10.888;2023-06-22T02:41:33;19.90;99.90
34153;DHT22;20426;48.372;10.888;2023-06-22T02:42:04;19.90;99.90
34153;DHT22;20426;48.372;10.888;2023-06-22T02:42:35;19.90;99.90
34153;DHT22;20426;48.372;10.888;2023-06-22T02:43:06;19.90;99.90
34153;DHT22;20426;48.372;10.888;2023-06-22T02:43:37;19.80;99.90
34153;DHT22;20426;48.372;10.888;2023-06-22T02:44:07;19.90;99.90
34153;DHT22;20426;48.372;10.888;2023-06-22T02:44:38;19.80;99.90
34153;DHT22;20426;48.372;10.888;2023-06-22T02:45:09;19.90;99.90
34153;DHT22;20426;48.372;10.888;2023-06-22T02:45:40;19.80;99.90
34153;DHT22;20426;48.372;10.888;2023-06-22T02:46:11;19.90;99.90
34153;DHT22;20426;48.372;10.888;2023-06-22T02:46:42;19.90;99.90
34153;DHT22;20426;48.372;10.888;2023-06-22T02:47:13;19.90;99.90
34153;DHT22;20426;48.372;10.888;2023-06-22T02:47:44;19.90;99.90
34153;DHT22;20426;48.372;10.888;2023-06-22T02:48:14;19.90;99.90
34153;DHT22;20426;48.372;10.888;2023-06-22T02:48:45;19.90;99.90
34153;DHT22;20426;48.372;10.888;2023-06-22T02:49:16;19.90;99.90
34153;DHT22;20426;48.372;10.888;2023-06-22T02:49:46;19.90;99.90
34153;DHT22;20426;48.372;10.888;2023-06-22T02:50:17;19.90;99.90
34153;DHT22;20426;48.372;10.888;2023-06-22T02:50:48;19.90;99.90
34153;DHT22;20426;48.372;10.888;2023-06-22T02:51:18;19.90;99.90
34153;DHT22;20426;48.372;10.888;2023-06-22T02:51:50;19.90;99.90
34153;DHT22;20426;48.372;10.888;2023-06-22T02:52:20;19.90;99.90
34153;DHT22;20426;48.372;10.888;2023-06-22T02:52:51;19.90;99.90
34153;DHT22;20426;48.372;10.888;2023-06-22T02:53:22;19.90;99.90
34153;DHT22;20426;48.372;10.888;2023-06-22T02:53:52;19.90;99.90
34153;DHT22;20426;48.372;10.888;2023-06-22T02:54:27;19.90;99.90
34153;DHT22;20426;48.372;10.888;2023-06-22T02:54:58;19.90;99.90
34153;DHT22;20426;48.372;10.888;2023-06-22T02:55:29;19.90;99.90
34153;DHT22;20426;48.372;10.888;2023-06-22T02:56:02;19.90;99.90
34153;DHT22;20426;48.372;10.888;2023-06-22T02:56:35;19.90;99.90
34153;DHT22;20426;48.372;10.888;2023-06-22T02:57:07;19.90;99.90
34153;DHT22;20426;48.372;10.888;2023-06-22T02:57:44;19.90;99.90
34153;DHT22;20426;48.372;10.888;2023-06-22T02:58:16;19.90;99.90
34153;DHT22;20426;48.372;10.888;2023-06-22T02:58:47;19.90;99.90
34153;DHT22;20426;48.372;10.888;2023-06-22T02:59:18;19.90;99.90
34153;DHT22;20426;48.372;10.888;2023-06-22T02:59:53;19.80;99.90
34153;DHT22;20426;48.372;10.888;2023-06-22T03:00:25;19.80;99.90
34153;DHT22;20426;48.372;10.888;2023-06-22T03:01:00;19.80;99.90
34153;DHT22;20426;48.372;10.888;2023-06-22T03:01:35;19.80;99.90
34153;DHT22;20426;48.372;10.888;2023-06-22T03:02:10;19.80;99.90
34153;DHT22;20426;48.372;10.888;2023-06-22T03:02:42;19.80;99.90
34153;DHT22;20426;48.372;10.888;2023-06-22T03:03:12;19.80;99.90
34153;DHT22;20426;48.372;10.888;2023-06-22T03:03:43;19.80;99.90
34153;DHT22;20426;48.372;10.888;2023-06-22T03:04:14;19.80;99.90
34153;DHT22;20426;48.372;10.888;2023-06-22T03:04:45;19.80;99.90
34153;DHT22;20426;48.372;10.888;2023-06-22T03:05:19;19.80;99.90
34153;DHT22;20426;48.372;10.888;2023-06-22T03:05:50;19.80;99.90
34153;DHT22;20426;48.372;10.888;2023-06-22T03:06:23;19.80;99.90
34153;DHT22;20426;48.372;10.888;2023-06-22T03:06:58;19.80;99.90
34153;DHT22;20426;48.372;10.888;2023-06-22T03:07:31;19.80;99.90
34153;DHT22;20426;48.372;10.888;2023-06-22T03:08:02;19.80;99.90
34153;DHT22;20426;48.372;10.888;2023-06-22T03:08:33;19.70;99.90
34153;DHT22;20426;48.372;10.888;2023-06-22T03:09:04;19.80;99.90
34153;DHT22;20426;48.372;10.888;2023-06-22T03:09:35;19.80;99.90
34153;DHT22;20426;48.372;10.888;2023-06-22T03:10:07;19.80;99.90
34153;DHT22;20426;48.372;10.888;2023-06-22T03:10:37;19.80;99.90
34153;DHT22;20426;48.372;10.888;2023-06-22T03:11:08;19.80;99.90
34153;DHT22;20426;48.372;10.888;2023-06-22T03:11:39;19.80;99.90
34153;DHT22;20426;48.372;10.888;2023-06-22T03:12:09;19.80;99.90
34153;DHT22;20426;48.372;10.888;2023-06-22T03:12:41;19.70;99.90
34153;DHT22;20426;48.372;10.888;2023-06-22T03:13:11;19.70;99.90
34153;DHT22;20426;48.372;10.888;2023-06-22T03:13:43;19.70;99.90
34153;DHT22;20426;48.372;10.888;2023-06-22T03:14:14;19.70;99.90
34153;DHT22;20426;48.372;10.888;2023-06-22T03:14:44;19.70;99.90
34153;DHT22;20426;48.372;10.888;2023-06-22T03:15:15;19.70;99.90
34153;DHT22;20426;48.372;10.888;2023-06-22T03:15:47;19.70;99.90
34153;DHT22;20426;48.372;10.888;2023-06-22T03:16:18;19.70;99.90
34153;DHT22;20426;48.372;10.888;2023-06-22T03:16:49;19.60;99.90
34153;DHT22;20426;48.372;10.888;2023-06-22T03:17:19;19.70;99.90
34153;DHT22;20426;48.372;10.888;2023-06-22T03:17:50;19.60;99.90
34153;DHT22;20426;48.372;10.888;2023-06-22T03:18:21;19.60;99.90
34153;DHT22;20426;48.372;10.888;2023-06-22T03:18:53;19.60;99.90
34153;DHT22;20426;48.372;10.888;2023-06-22T03:19:24;19.60;99.90
34153;DHT22;20426;48.372;10.888;2023-06-22T03:19:54;19.60;99.90
34153;DHT22;20426;48.372;10.888;2023-06-22T03:20:25;19.60;99.90
34153;DHT22;20426;48.372;10.888;2023-06-22T03:20:57;19.60;99.90
34153;DHT22;20426;48.372;10.888;2023-06-22T03:21:28;19.60;99.90
34153;DHT22;20426;48.372;10.888;2023-06-22T03:22:00;19.60;99.90
34153;DHT22;20426;48.372;10.888;2023-06-22T03:22:30;19.60;99.90
34153;DHT22;20426;48.372;10.888;2023-06-22T03:23:01;19.60;99.90
34153;DHT22;20426;48.372;10.888;2023-06-22T03:23:32;19.70;99.90
34153;DHT22;20426;48.372;10.888;2023-06-22T03:24:03;19.60;99.90
34153;DHT22;20426;48.372;10.888;2023-06-22T03:24:33;19.60;99.90
34153;DHT22;20426;48.372;10.888;2023-06-22T03:25:05;19.60;99.90
34153;DHT22;20426;48.372;10.888;2023-06-22T03:25:43;19.60;99.90
34153;DHT22;20426;48.372;10.888;2023-06-22T03:26:18;19.60;99.90
34153;DHT22;20426;48.372;10.888;2023-06-22T03:26:49;19.60;99.90
34153;DHT22;20426;48.372;10.888;2023-06-22T03:27:19;19.60;99.90
34153;DHT22;20426;48.372;10.888;2023-06-22T03:27:50;19.60;99.90
34153;DHT22;20426;48.372;10.888;2023-06-22T03:28:21;19.60;99.90